Time;durP1;ratioP1;P1;durP2;ratioP2;P2;SDS_P1;SDS_P2;PMS_P1;PMS_P2;Temp;Humidity;BMP_temperature;BMP_pressure;BME280_temperature;BME280_humidity;BME280_pressure;Samples;Min_cycle;Max_cycle;Signal;HPM_P1;HPM_P2
2021/10/27 00:02:00;;;;;;;15.13;13.93;;;6.20;99.90;;;;;;5063772;28;20198;-76
2021/10/27 00:04:27;;;;;;;16.17;14.67;;;6.10;99.90;;;;;;5063342;28;20196;-76
2021/10/27 00:06:53;;;;;;;15.17;14.03;;;6.10;99.90;;;;;;5058751;28;20218;-76
2021/10/27 00:09:20;;;;;;;15.63;14.30;;;6.10;99.90;;;;;;5054331;28;20754;-76
2021/10/27 00:11:47;;;;;;;15.90;14.60;;;6.10;99.90;;;;;;5056119;28;20192;-76
2021/10/27 00:14:14;;;;;;;15.97;14.63;;;6.00;99.90;;;;;;5060196;28;20191;-76
2021/10/27 00:16:42;;;;;;;15.13;13.93;;;6.00;99.90;;;;;;5062485;28;20208;-77
2021/10/27 00:19:09;;;;;;;15.10;14.00;;;6.00;99.90;;;;;;5063378;28;20211;-76
2021/10/27 00:21:36;;;;;;;14.70;13.60;;;6.00;99.90;;;;;;5059427;28;20203;-77
2021/10/27 00:24:03;;;;;;;16.00;14.80;;;5.90;99.90;;;;;;5056865;28;20260;-76
2021/10/27 00:26:30;;;;;;;16.23;15.03;;;5.90;99.90;;;;;;5057597;28;20237;-77
2021/10/27 00:28:57;;;;;;;16.13;14.80;;;6.00;99.90;;;;;;5057111;28;20223;-76
2021/10/27 00:31:24;;;;;;;15.73;14.53;;;5.90;99.90;;;;;;5060567;28;20302;-76
2021/10/27 00:33:52;;;;;;;15.70;14.43;;;5.90;99.90;;;;;;5055390;28;20217;-76
2021/10/27 00:36:19;;;;;;;16.27;15.00;;;5.90;99.90;;;;;;5054417;28;20249;-76
2021/10/27 00:38:46;;;;;;;16.30;14.90;;;5.90;99.90;;;;;;5061163;28;20218;-75
2021/10/27 00:41:13;;;;;;;16.77;15.37;;;5.90;99.90;;;;;;5055291;28;20818;-76
2021/10/27 00:43:40;;;;;;;16.70;15.40;;;5.90;99.90;;;;;;5060781;28;20252;-76
2021/10/27 00:46:18;;;;;;;16.27;14.90;;;5.90;99.90;;;;;;5063274;28;20202;-76
2021/10/27 00:48:45;;;;;;;16.23;15.00;;;5.90;99.90;;;;;;5061643;28;20226;-76
2021/10/27 00:51:13;;;;;;;16.80;15.50;;;5.90;99.90;;;;;;5055330;28;20199;-76
2021/10/27 00:53:42;;;;;;;16.63;15.43;;;5.90;99.90;;;;;;5062134;28;20191;-76
2021/10/27 00:56:09;;;;;;;16.47;15.17;;;5.90;99.90;;;;;;5050145;28;20203;-76
2021/10/27 00:58:36;;;;;;;16.20;15.00;;;5.90;99.90;;;;;;5062513;28;20222;-76
2021/10/27 01:01:04;;;;;;;16.37;15.17;;;5.90;99.90;;;;;;5063355;28;20628;-76
2021/10/27 01:03:32;;;;;;;17.83;16.27;;;5.90;99.90;;;;;;5056162;28;20280;-76
2021/10/27 01:05:58;;;;;;;16.67;15.27;;;5.90;99.90;;;;;;5058996;28;20249;-76
2021/10/27 01:08:27;;;;;;;17.40;15.90;;;5.80;99.90;;;;;;5059780;28;20211;-76
2021/10/27 01:10:54;;;;;;;16.27;15.07;;;5.80;99.90;;;;;;5064500;28;20199;-76
2021/10/27 01:13:21;;;;;;;17.13;15.83;;;5.80;99.90;;;;;;5062169;28;20199;-76
2021/10/27 01:15:47;;;;;;;12.17;10.17;;;5.80;99.90;;;;;;5057441;28;20253;-76
2021/10/27 01:18:14;;;;;;;17.77;16.27;;;5.80;99.90;;;;;;5061404;28;20252;-76
2021/10/27 01:20:43;;;;;;;17.27;15.57;;;5.70;99.90;;;;;;5064565;28;20247;-76
2021/10/27 01:23:09;;;;;;;12.23;9.57;;;5.60;99.90;;;;;;5063393;28;20195;-76
2021/10/27 01:25:36;;;;;;;10.57;9.47;;;5.60;99.90;;;;;;5065979;28;20199;-76
2021/10/27 01:28:03;;;;;;;13.57;12.37;;;5.60;99.90;;;;;;5055210;28;20215;-76
2021/10/27 01:30:30;;;;;;;14.63;13.33;;;5.60;99.90;;;;;;5063814;28;20199;-76
2021/10/27 01:32:57;;;;;;;13.20;11.97;;;5.60;99.90;;;;;;5063369;28;20276;-76
2021/10/27 01:35:24;;;;;;;10.27;8.43;;;5.60;99.90;;;;;;5063201;28;20664;-76
2021/10/27 01:37:52;;;;;;;13.53;12.43;;;5.70;99.90;;;;;;5053619;28;20257;-76
2021/10/27 01:40:20;;;;;;;11.33;10.27;;;5.70;99.90;;;;;;5058239;28;20310;-76
2021/10/27 01:42:51;;;;;;;12.97;9.50;;;5.70;99.90;;;;;;5060587;28;20244;-76
2021/10/27 01:45:18;;;;;;;9.70;7.90;;;5.60;99.90;;;;;;5066416;28;20668;-76
2021/10/27 01:47:46;;;;;;;11.67;8.47;;;5.60;99.90;;;;;;5060435;28;20645;-76
2021/10/27 01:50:14;;;;;;;8.80;7.73;;;5.60;99.90;;;;;;5059801;28;20223;-77
2021/10/27 01:52:41;;;;;;;10.57;8.10;;;5.50;99.90;;;;;;5064165;28;20207;-76
2021/10/27 01:55:09;;;;;;;9.33;8.40;;;5.50;99.90;;;;;;5061624;28;20191;-76
2021/10/27 01:57:36;;;;;;;9.77;8.77;;;5.40;99.90;;;;;;5062268;28;20207;-76
2021/10/27 02:00:04;;;;;;;9.63;8.73;;;5.40;99.90;;;;;;5059642;28;20313;-76
2021/10/27 02:02:39;;;;;;;8.87;8.00;;;5.40;99.90;;;;;;5063979;28;20213;-76
2021/10/27 02:05:06;;;;;;;7.67;6.97;;;5.30;99.90;;;;;;5063206;28;20263;-76
2021/10/27 02:07:33;;;;;;;9.77;8.00;;;5.30;99.90;;;;;;5057398;28;20215;-76
2021/10/27 02:10:00;;;;;;;10.43;9.43;;;5.30;99.90;;;;;;5063302;28;20215;-76
2021/10/27 02:12:28;;;;;;;12.60;11.43;;;5.30;99.90;;;;;;5062787;28;20664;-76
2021/10/27 02:14:55;;;;;;;14.63;13.37;;;5.20;99.90;;;;;;5063410;28;20203;-76
2021/10/27 02:17:22;;;;;;;14.10;13.00;;;5.20;99.90;;;;;;5063391;28;20240;-76
2021/10/27 02:19:48;;;;;;;16.40;15.10;;;5.10;99.90;;;;;;5057273;28;20214;-76
2021/10/27 02:22:15;;;;;;;17.23;15.93;;;5.10;99.90;;;;;;5057234;28;20199;-76
2021/10/27 02:24:42;;;;;;;18.80;17.23;;;5.10;99.90;;;;;;5064559;28;20207;-76
2021/10/27 02:27:09;;;;;;;15.67;14.37;;;5.00;99.90;;;;;;5063138;28;20193;-77
2021/10/27 02:29:37;;;;;;;15.97;14.60;;;5.00;99.90;;;;;;5063388;28;20719;-76
2021/10/27 02:32:05;;;;;;;16.53;15.13;;;4.90;99.90;;;;;;5061715;28;20210;-76
2021/10/27 02:34:32;;;;;;;15.83;14.60;;;4.80;99.90;;;;;;5064924;28;20218;-76
2021/10/27 02:36:59;;;;;;;16.63;15.33;;;4.70;99.90;;;;;;5060534;28;20194;-76
2021/10/27 02:39:26;;;;;;;17.40;16.13;;;4.70;99.90;;;;;;5057287;28;20704;-76
2021/10/27 02:41:53;;;;;;;16.57;15.27;;;4.70;99.90;;;;;;5061079;28;20199;-76
2021/10/27 02:44:21;;;;;;;17.13;15.63;;;4.70;99.90;;;;;;5061833;28;20198;-79
2021/10/27 02:46:50;;;;;;;16.73;15.30;;;4.70;99.90;;;;;;5062674;28;20213;-80
2021/10/27 02:49:17;;;;;;;16.90;15.63;;;4.70;99.90;;;;;;5070257;28;20251;-79
2021/10/27 02:51:44;;;;;;;17.00;15.80;;;4.70;99.90;;;;;;5068767;28;20270;-81
2021/10/27 02:54:11;;;;;;;16.97;15.77;;;4.70;99.90;;;;;;5062919;28;20183;-78
2021/10/27 02:56:38;;;;;;;16.20;15.00;;;4.80;99.90;;;;;;5058014;28;20207;-79
2021/10/27 02:59:04;;;;;;;15.47;14.37;;;4.90;99.90;;;;;;5056545;28;20261;-78
2021/10/27 03:01:31;;;;;;;15.40;14.30;;;4.90;99.90;;;;;;5053603;28;20211;-79
2021/10/27 03:04:00;;;;;;;15.67;14.37;;;4.80;99.90;;;;;;5054690;28;20203;-79
2021/10/27 03:06:27;;;;;;;15.53;14.47;;;4.70;99.90;;;;;;5055196;28;20237;-79
2021/10/27 03:08:54;;;;;;;16.90;15.50;;;4.70;99.90;;;;;;5056482;28;20223;-76
2021/10/27 03:11:21;;;;;;;17.23;15.93;;;4.70;99.90;;;;;;5056470;28;20203;-75
2021/10/27 03:13:48;;;;;;;16.43;15.17;;;4.70;99.90;;;;;;5056700;28;20248;-76
2021/10/27 03:16:15;;;;;;;15.80;14.60;;;4.70;99.90;;;;;;5054276;28;20195;-75
2021/10/27 03:18:42;;;;;;;17.30;15.80;;;4.70;99.90;;;;;;5054528;28;20781;-76
2021/10/27 03:21:10;;;;;;;17.37;15.93;;;4.70;99.90;;;;;;5072853;28;20202;-76
2021/10/27 03:23:37;;;;;;;16.67;15.37;;;4.70;99.90;;;;;;5064449;28;20203;-76
2021/10/27 03:26:03;;;;;;;17.50;16.20;;;4.60;99.90;;;;;;5063552;28;20273;-75
2021/10/27 03:28:30;;;;;;;16.90;15.70;;;4.60;99.90;;;;;;5061360;28;20657;-75
2021/10/27 03:30:58;;;;;;;17.83;16.37;;;4.60;99.90;;;;;;5062371;28;20282;-76
2021/10/27 03:33:25;;;;;;;17.87;16.57;;;4.50;99.90;;;;;;5063562;28;20278;-76
2021/10/27 03:35:51;;;;;;;17.57;16.07;;;4.50;99.90;;;;;;5056757;28;20206;-77
2021/10/27 03:38:20;;;;;;;17.50;16.10;;;4.50;99.90;;;;;;5059475;28;20191;-75
2021/10/27 03:40:46;;;;;;;17.60;16.20;;;4.50;99.90;;;;;;5052879;28;20195;-76
2021/10/27 03:43:15;;;;;;;17.87;16.43;;;4.40;99.90;;;;;;5061610;28;20199;-76
2021/10/27 03:45:41;;;;;;;18.00;16.50;;;4.40;99.90;;;;;;5064673;28;20289;-76
2021/10/27 03:48:08;;;;;;;18.73;17.20;;;4.40;99.90;;;;;;5060917;28;20210;-76
2021/10/27 03:50:35;;;;;;;18.37;17.07;;;4.40;99.90;;;;;;5062413;28;20190;-76
2021/10/27 03:53:02;;;;;;;17.97;16.50;;;4.40;99.90;;;;;;5060555;28;20195;-76
2021/10/27 03:55:30;;;;;;;18.17;16.63;;;4.40;99.90;;;;;;5051567;28;20224;-76
2021/10/27 03:57:58;;;;;;;18.70;17.20;;;4.50;99.90;;;;;;5057127;28;20477;-76
2021/10/27 04:00:26;;;;;;;17.57;16.37;;;4.50;99.90;;;;;;5058880;28;20847;-76
2021/10/27 04:02:53;;;;;;;18.60;17.13;;;4.50;99.90;;;;;;5061066;28;20445;-76
2021/10/27 04:05:20;;;;;;;18.50;17.13;;;4.50;99.90;;;;;;5059117;28;20195;-76
2021/10/27 04:07:47;;;;;;;18.57;17.23;;;4.50;99.90;;;;;;5062757;28;20680;-77
2021/10/27 04:10:14;;;;;;;19.77;18.07;;;4.50;99.90;;;;;;5052966;28;20220;-76
2021/10/27 04:12:43;;;;;;;21.00;19.10;;;4.50;99.90;;;;;;5053039;28;20260;-77
2021/10/27 04:15:12;;;;;;;20.83;19.10;;;4.50;99.90;;;;;;5059173;28;20191;-76
2021/10/27 04:17:40;;;;;;;22.50;20.50;;;4.60;99.90;;;;;;5063464;28;20281;-77
2021/10/27 04:20:08;;;;;;;21.20;19.30;;;4.70;99.90;;;;;;5059820;28;20208;-77
2021/10/27 04:22:37;;;;;;;19.50;17.90;;;4.80;99.90;;;;;;5061198;28;20195;-76
2021/10/27 04:25:05;;;;;;;19.40;17.70;;;4.80;99.90;;;;;;5061137;28;20203;-76
2021/10/27 04:27:32;;;;;;;21.40;19.53;;;4.90;99.90;;;;;;5062263;28;20547;-76
2021/10/27 04:30:01;;;;;;;19.97;18.27;;;4.90;99.90;;;;;;5051884;28;20230;-76
2021/10/27 04:32:28;;;;;;;18.83;17.30;;;4.90;99.90;;;;;;5060384;28;20676;-76
2021/10/27 04:34:54;;;;;;;18.47;17.07;;;4.90;99.90;;;;;;5058416;28;20199;-76
2021/10/27 04:37:21;;;;;;;16.80;15.60;;;4.80;99.90;;;;;;5059908;28;20199;-76
2021/10/27 04:39:48;;;;;;;16.37;15.17;;;4.70;99.90;;;;;;5053328;28;20567;-76
2021/10/27 04:42:15;;;;;;;16.40;15.20;;;4.60;99.90;;;;;;5060936;28;20256;-76
2021/10/27 04:44:42;;;;;;;16.47;15.10;;;4.50;99.90;;;;;;5059812;28;20202;-76
2021/10/27 04:47:10;;;;;;;16.90;15.50;;;4.40;99.90;;;;;;5061046;28;20565;-76
2021/10/27 04:49:37;;;;;;;16.67;15.47;;;4.30;99.90;;;;;;5056255;28;20268;-76
2021/10/27 04:52:04;;;;;;;16.80;15.50;;;4.30;99.90;;;;;;5058550;28;20648;-76
2021/10/27 04:54:31;;;;;;;17.07;15.77;;;4.30;99.90;;;;;;5060563;28;20199;-76
2021/10/27 04:56:59;;;;;;;16.20;15.10;;;4.20;99.90;;;;;;5060237;28;20444;-77
2021/10/27 04:59:30;;;;;;;17.77;16.47;;;4.20;99.90;;;;;;5058964;28;20222;-76
2021/10/27 05:01:59;;;;;;;17.10;15.87;;;4.10;99.90;;;;;;5051322;28;20703;-76
2021/10/27 05:04:27;;;;;;;17.53;16.23;;;4.00;99.90;;;;;;5061521;28;20227;-77
2021/10/27 05:06:55;;;;;;;17.63;16.13;;;4.00;99.90;;;;;;5062980;28;20183;-75
2021/10/27 05:09:21;;;;;;;18.07;16.67;;;4.00;99.90;;;;;;5056725;28;20270;-76
2021/10/27 05:11:48;;;;;;;17.73;16.53;;;3.90;99.90;;;;;;5061150;28;20202;-77
2021/10/27 05:14:15;;;;;;;17.63;16.33;;;3.90;99.90;;;;;;5059630;28;20547;-76
2021/10/27 05:16:42;;;;;;;17.87;16.57;;;3.90;99.90;;;;;;5054371;28;20207;-76
2021/10/27 05:19:08;;;;;;;17.77;16.47;;;3.90;99.90;;;;;;5062611;28;20279;-76
2021/10/27 05:21:37;;;;;;;17.90;16.43;;;3.90;99.90;;;;;;5055282;28;20200;-76
2021/10/27 05:24:04;;;;;;;17.60;16.30;;;3.90;99.90;;;;;;5061418;28;20195;-76
2021/10/27 05:26:31;;;;;;;18.00;16.77;;;3.90;99.90;;;;;;5057831;28;20264;-76
2021/10/27 05:28:58;;;;;;;17.90;16.50;;;4.00;99.90;;;;;;5061227;28;20267;-76
2021/10/27 05:31:25;;;;;;;18.50;17.10;;;4.00;99.90;;;;;;5059616;28;20195;-76
2021/10/27 05:33:52;;;;;;;17.60;16.30;;;4.10;99.90;;;;;;5062323;28;20791;-77
2021/10/27 05:36:19;;;;;;;17.63;16.43;;;4.00;99.90;;;;;;5059982;28;20448;-77
2021/10/27 05:38:47;;;;;;;17.63;16.43;;;4.00;99.90;;;;;;5055529;28;20289;-76
2021/10/27 05:41:14;;;;;;;17.17;15.97;;;4.00;99.90;;;;;;5057827;28;20438;-76
2021/10/27 05:43:42;;;;;;;18.23;16.90;;;3.90;99.90;;;;;;5060360;28;20445;-76
2021/10/27 05:46:09;;;;;;;17.83;16.63;;;3.90;99.90;;;;;;5049640;28;20199;-76
2021/10/27 05:48:39;;;;;;;17.57;16.33;;;4.00;99.90;;;;;;5053075;28;20235;-76
2021/10/27 05:51:19;;;;;;;17.70;16.40;;;3.90;99.90;;;;;;5062416;28;20277;-77
2021/10/27 05:56:33;;;;;;;17.90;16.60;;;3.90;99.90;;;;;;5063582;28;20297;-77
2021/10/27 05:59:00;;;;;;;18.37;17.07;;;3.90;99.90;;;;;;5057183;28;20489;-76
2021/10/27 06:01:27;;;;;;;18.27;16.97;;;4.00;99.90;;;;;;5061387;28;20584;-77
2021/10/27 06:03:54;;;;;;;17.80;16.60;;;4.00;99.90;;;;;;5067238;28;20670;-77
2021/10/27 06:06:20;;;;;;;17.70;16.50;;;4.10;99.90;;;;;;5064694;28;20534;-77
2021/10/27 06:08:49;;;;;;;17.30;16.10;;;4.10;99.90;;;;;;5059884;28;20222;-76
2021/10/27 06:11:16;;;;;;;17.63;16.50;;;4.10;99.90;;;;;;5065793;28;20193;-76
2021/10/27 06:13:46;;;;;;;17.13;15.93;;;4.10;99.90;;;;;;5059569;28;20202;-76
2021/10/27 06:16:13;;;;;;;17.43;16.23;;;4.20;99.90;;;;;;5060781;28;20545;-77
2021/10/27 06:18:40;;;;;;;17.17;15.97;;;4.20;99.90;;;;;;5064062;28;20238;-76
2021/10/27 06:21:08;;;;;;;16.60;15.47;;;4.30;99.90;;;;;;5066047;28;20600;-77
2021/10/27 06:23:36;;;;;;;16.73;15.53;;;4.30;99.90;;;;;;5067721;28;20194;-76
2021/10/27 06:26:04;;;;;;;15.33;14.23;;;4.30;99.90;;;;;;5065574;28;20190;-76
2021/10/27 06:28:37;;;;;;;16.17;14.97;;;4.30;99.90;;;;;;5056749;28;20242;-77
2021/10/27 06:31:07;;;;;;;15.93;14.77;;;4.40;99.90;;;;;;5060630;28;20191;-76
2021/10/27 06:33:50;;;;;;;16.00;14.90;;;4.50;99.90;;;;;;5061733;28;20226;-77
2021/10/27 06:36:23;;;;;;;16.60;15.47;;;4.50;99.90;;;;;;5061991;28;20199;-76
2021/10/27 06:38:59;;;;;;;13.40;12.37;;;4.60;99.90;;;;;;5060316;28;20301;-77
2021/10/27 06:46:56;;;;;;;10.10;9.30;;;4.80;99.90;;;;;;5061543;28;20202;-77
2021/10/27 06:49:23;;;;;;;15.70;14.70;;;4.90;99.90;;;;;;5061643;28;20222;-77
2021/10/27 06:51:50;;;;;;;16.77;15.57;;;5.00;99.90;;;;;;5052143;28;20195;-77
2021/10/27 06:54:17;;;;;;;15.80;14.73;;;5.10;99.90;;;;;;5059392;28;20437;-77
2021/10/27 06:56:46;;;;;;;15.77;14.77;;;5.10;99.90;;;;;;5059661;28;20260;-77
2021/10/27 06:59:15;;;;;;;15.87;14.77;;;5.20;99.90;;;;;;5060577;28;20305;-76
2021/10/27 07:02:25;;;;;;;6.67;6.00;;;5.40;99.90;;;;;;5063012;28;20205;-77
2021/10/27 07:15:48;;;;;;;6.63;5.97;;;5.70;99.90;;;;;;5064522;28;20339;-77
2021/10/27 07:18:15;;;;;;;6.90;6.20;;;5.60;99.90;;;;;;5058571;28;20191;-77
2021/10/27 07:20:42;;;;;;;6.53;5.90;;;5.60;99.90;;;;;;5061745;28;20252;-77
2021/10/27 07:23:10;;;;;;;6.23;5.63;;;5.60;99.90;;;;;;5061678;28;20257;-77
2021/10/27 07:25:38;;;;;;;15.03;13.97;;;5.70;99.90;;;;;;5057312;28;20426;-77
2021/10/27 07:28:08;;;;;;;6.13;5.57;;;5.80;99.90;;;;;;5060481;28;20669;-77
2021/10/27 07:30:35;;;;;;;6.40;5.80;;;6.00;99.90;;;;;;5052399;28;20269;-76
2021/10/27 07:33:02;;;;;;;15.60;14.70;;;6.10;99.90;;;;;;5061170;28;20192;-77
2021/10/27 07:35:34;;;;;;;5.63;5.13;;;6.10;99.90;;;;;;5052053;28;20203;-77
2021/10/27 07:40:57;;;;;;;5.67;5.17;;;6.10;99.90;;;;;;5016338;28;20574;-77
2021/10/27 07:43:28;;;;;;;8.60;8.00;;;6.10;99.90;;;;;;5035837;28;20250;-77
2021/10/27 07:45:55;;;;;;;10.00;9.00;;;6.10;99.90;;;;;;5060267;28;20198;-77
2021/10/27 07:48:23;;;;;;;12.77;11.87;;;6.20;99.90;;;;;;5058947;28;20195;-77
2021/10/27 07:50:50;;;;;;;7.17;6.07;;;6.30;99.90;;;;;;5062084;28;20274;-77
2021/10/27 07:53:18;;;;;;;14.80;13.80;;;6.40;99.90;;;;;;5051414;28;20202;-77
2021/10/27 07:55:46;;;;;;;14.30;13.30;;;6.50;99.90;;;;;;5056744;28;20241;-77
2021/10/27 07:58:14;;;;;;;12.30;11.40;;;6.50;99.90;;;;;;5050352;28;20242;-77
2021/10/27 08:00:43;;;;;;;14.70;13.70;;;6.60;99.90;;;;;;5066237;28;20719;-76
2021/10/27 08:03:10;;;;;;;13.30;12.40;;;6.70;99.90;;;;;;5060186;28;20191;-77
2021/10/27 08:05:40;;;;;;;12.33;11.50;;;6.80;99.90;;;;;;5064827;28;20254;-77
2021/10/27 08:08:08;;;;;;;11.77;10.97;;;6.80;99.90;;;;;;5060111;28;20577;-77
2021/10/27 08:10:35;;;;;;;12.33;11.50;;;6.90;99.90;;;;;;5056786;28;20710;-78
2021/10/27 08:13:03;;;;;;;12.13;11.13;;;7.00;99.90;;;;;;5059680;28;20673;-77
2021/10/27 08:15:32;;;;;;;12.73;11.83;;;7.10;99.90;;;;;;5060465;28;20220;-77
2021/10/27 08:18:00;;;;;;;13.43;12.50;;;7.00;99.90;;;;;;5049875;28;20232;-77
2021/10/27 08:20:29;;;;;;;14.00;13.00;;;7.20;99.90;;;;;;5060573;28;20717;-77
2021/10/27 08:22:58;;;;;;;13.77;12.77;;;7.20;99.90;;;;;;5063097;28;20245;-77
2021/10/27 08:25:29;;;;;;;9.67;8.87;;;7.30;99.90;;;;;;5054170;28;20215;-77
2021/10/27 08:27:57;;;;;;;10.97;9.37;;;7.30;99.90;;;;;;5063170;28;20288;-76
2021/10/27 08:30:33;;;;;;;7.97;7.27;;;7.30;99.90;;;;;;5056447;28;20717;-77
2021/10/27 08:33:04;;;;;;;13.23;12.23;;;7.20;99.90;;;;;;5059411;28;20229;-77
2021/10/27 08:35:32;;;;;;;13.60;12.60;;;7.30;99.90;;;;;;5060488;28;20198;-75
2021/10/27 08:37:59;;;;;;;14.80;13.60;;;7.40;99.90;;;;;;5059643;28;20191;-76
2021/10/27 08:40:29;;;;;;;16.43;15.23;;;7.50;99.90;;;;;;5060480;28;20615;-77
2021/10/27 08:42:57;;;;;;;16.27;15.17;;;7.60;99.90;;;;;;5058571;28;20202;-77
2021/10/27 08:45:25;;;;;;;15.00;14.00;;;7.60;99.90;;;;;;5053704;28;20199;-77
2021/10/27 08:47:53;;;;;;;14.57;13.57;;;7.80;99.90;;;;;;5058062;28;20251;-77
2021/10/27 08:50:23;;;;;;;11.80;10.90;;;7.80;99.90;;;;;;5059111;28;20651;-77
2021/10/27 08:52:50;;;;;;;9.00;8.40;;;7.70;99.90;;;;;;5058496;28;20555;-77
2021/10/27 08:55:18;;;;;;;13.33;12.43;;;7.70;99.90;;;;;;5050125;28;20262;-76
2021/10/27 08:57:47;;;;;;;8.93;8.23;;;7.80;99.90;;;;;;5055039;28;20212;-76
2021/10/27 09:00:19;;;;;;;14.13;13.13;;;7.90;99.90;;;;;;5054734;28;20244;-77
2021/10/27 09:03:01;;;;;;;10.30;9.50;;;7.90;99.90;;;;;;5062406;28;20190;-77
2021/10/27 09:05:39;;;;;;;11.17;10.27;;;8.10;99.90;;;;;;5062578;28;20192;-77
2021/10/27 09:08:32;;;;;;;13.17;12.17;;;8.20;99.90;;;;;;5058934;28;20361;-77
2021/10/27 09:34:28;;;;;;;12.80;11.60;;;9.10;99.90;;;;;;5066826;28;20461;-77
2021/10/27 10:05:28;;;;;;;15.10;13.90;;;10.30;99.90;;;;;;5063131;28;20203;-77
2021/10/27 10:07:55;;;;;;;11.77;10.67;;;10.30;99.90;;;;;;5059369;28;20288;-77
2021/10/27 10:10:22;;;;;;;10.37;9.47;;;10.30;99.90;;;;;;5064844;28;20230;-77
2021/10/27 10:12:54;;;;;;;10.87;9.97;;;10.40;99.90;;;;;;5054803;28;20264;-77
2021/10/27 10:15:26;;;;;;;11.87;10.87;;;10.30;99.90;;;;;;5062462;28;20790;-77
2021/10/27 10:17:54;;;;;;;11.60;10.60;;;10.20;99.90;;;;;;5060893;28;20731;-77
2021/10/27 10:20:22;;;;;;;12.63;11.53;;;10.20;99.90;;;;;;5063646;28;20214;-77
2021/10/27 10:22:49;;;;;;;13.63;12.53;;;10.20;99.90;;;;;;5070758;28;20199;-77
2021/10/27 10:25:33;;;;;;;13.43;12.33;;;10.10;99.90;;;;;;5070811;28;20668;-77
2021/10/27 10:30:57;;;;;;;12.77;11.87;;;10.20;99.90;;;;;;5125832;27;20563;-76
2021/10/27 10:33:40;;;;;;;11.20;10.30;;;10.60;99.90;;;;;;5123985;27;20200;-76
2021/10/27 10:36:11;;;;;;;12.17;11.27;;;10.60;99.90;;;;;;5117653;28;20649;-76
2021/10/27 10:38:50;;;;;;;14.60;13.30;;;10.70;99.90;;;;;;5122273;27;20327;-76
2021/10/27 10:41:46;;;;;;;12.97;11.87;;;10.70;99.90;;;;;;5124070;27;20211;-76
2021/10/27 10:44:36;;;;;;;10.20;9.30;;;10.80;99.90;;;;;;5129543;27;20192;-76
2021/10/27 11:23:17;;;;;;;12.33;11.33;;;12.10;99.90;;;;;;5122726;28;20238;-78
2021/10/27 11:26:08;;;;;;;13.03;11.93;;;12.20;99.90;;;;;;5125015;28;20294;-79
2021/10/27 11:37:28;;;;;;;13.03;11.97;;;12.40;99.90;;;;;;5120190;28;20195;-76
2021/10/27 11:40:06;;;;;;;9.20;8.30;;;12.40;99.90;;;;;;5119476;28;20632;-76
2021/10/27 11:42:47;;;;;;;12.50;11.40;;;12.40;99.90;;;;;;5114898;28;20198;-76
2021/10/27 11:45:23;;;;;;;13.80;12.70;;;12.50;99.90;;;;;;5114761;28;20616;-76
2021/10/27 11:47:53;;;;;;;14.50;13.30;;;12.70;99.90;;;;;;5106400;28;20191;-75
2021/10/27 11:50:23;;;;;;;11.10;10.03;;;12.70;99.90;;;;;;5104823;28;20251;-75
2021/10/27 11:52:52;;;;;;;12.33;11.23;;;12.80;99.90;;;;;;5122185;27;20611;-76
2021/10/27 11:55:21;;;;;;;15.07;13.60;;;12.90;99.90;;;;;;5107045;28;20194;-75
2021/10/27 11:57:53;;;;;;;13.43;12.33;;;12.90;99.90;;;;;;5112830;27;20279;-76
2021/10/27 12:00:31;;;;;;;14.27;12.97;;;13.00;99.90;;;;;;5104733;28;20220;-76
2021/10/27 12:03:04;;;;;;;13.10;11.80;;;13.10;99.90;;;;;;5098922;28;20651;-76
2021/10/27 12:05:38;;;;;;;13.70;12.53;;;13.00;99.90;;;;;;5114495;28;20688;-76
2021/10/27 12:08:20;;;;;;;13.70;12.50;;;13.10;99.90;;;;;;5112847;28;20581;-76
2021/10/27 12:13:47;;;;;;;12.90;11.63;;;13.10;99.90;;;;;;5114122;28;20237;-77
2021/10/27 12:19:01;;;;;;;13.27;12.17;;;13.20;99.90;;;;;;5079105;28;20266;-76
2021/10/27 12:21:30;;;;;;;13.53;12.33;;;13.20;99.90;;;;;;5114171;28;20203;-76
2021/10/27 12:23:58;;;;;;;13.57;12.47;;;13.30;99.90;;;;;;5109089;28;20253;-76
2021/10/27 12:26:26;;;;;;;14.97;13.67;;;13.40;99.90;;;;;;5112635;28;20197;-77
2021/10/27 12:29:10;;;;;;;16.40;15.00;;;13.40;99.90;;;;;;5113473;28;20220;-77
2021/10/27 12:31:37;;;;;;;16.60;15.27;;;13.40;99.90;;;;;;5113926;28;20658;-77
2021/10/27 12:34:19;;;;;;;14.90;13.70;;;13.40;99.90;;;;;;5112699;28;20203;-77
2021/10/27 12:36:50;;;;;;;14.17;12.77;;;13.50;99.90;;;;;;5113896;28;20271;-76
2021/10/27 12:39:22;;;;;;;13.93;12.73;;;13.50;99.90;;;;;;5113028;28;20208;-77
2021/10/27 12:42:02;;;;;;;15.80;14.50;;;13.50;99.90;;;;;;5113709;28;20189;-77
2021/10/27 12:44:29;;;;;;;14.00;12.90;;;13.60;99.90;;;;;;5113498;28;20193;-76
2021/10/27 12:47:10;;;;;;;15.83;14.63;;;13.70;99.90;;;;;;5108958;28;20193;-77
2021/10/27 12:49:37;;;;;;;17.57;16.13;;;13.60;99.90;;;;;;5111797;28;20230;-77
2021/10/27 12:52:30;;;;;;;11.17;10.27;;;13.70;99.90;;;;;;5112832;28;20196;-77
2021/10/27 12:55:21;;;;;;;15.50;14.40;;;13.80;99.90;;;;;;5090844;28;20231;-77
2021/10/27 12:57:53;;;;;;;15.73;14.53;;;13.90;99.90;;;;;;5113422;28;20189;-76
2021/10/27 13:00:24;;;;;;;11.03;9.93;;;14.00;99.90;;;;;;5111961;28;20296;-77
2021/10/27 13:03:42;;;;;;;11.47;10.40;;;14.00;99.90;;;;;;5117546;27;20661;-77
2021/10/27 13:06:33;;;;;;;15.83;14.67;;;14.00;99.90;;;;;;5106222;28;20239;-77
2021/10/27 13:22:57;;;;;;;16.60;15.27;;;14.20;99.90;;;;;;5102001;28;20181;-76
2021/10/27 13:30:56;;;;;;;17.43;15.83;;;14.20;99.90;;;;;;5104924;28;20213;-77
2021/10/27 13:33:24;;;;;;;16.97;15.67;;;14.20;99.90;;;;;;5109383;28;20230;-77
2021/10/27 13:35:51;;;;;;;15.17;13.87;;;14.20;99.90;;;;;;5107535;28;20181;-76
2021/10/27 13:38:20;;;;;;;11.57;10.60;;;14.20;99.90;;;;;;5112321;28;20197;-76
2021/10/27 13:40:49;;;;;;;11.87;10.87;;;14.30;99.90;;;;;;5111112;28;20185;-76
2021/10/27 13:43:20;;;;;;;8.80;7.27;;;14.30;99.90;;;;;;5112523;27;20642;-76
2021/10/27 13:45:58;;;;;;;9.20;8.33;;;14.40;99.90;;;;;;5111363;28;20564;-76
2021/10/27 13:48:35;;;;;;;8.67;7.77;;;14.40;99.90;;;;;;5112274;28;20220;-76
2021/10/27 14:05:57;;;;;;;9.50;7.03;;;14.40;99.90;;;;;;5063174;28;20233;-76
2021/10/27 14:07:41;;;;;;;9.50;7.83;;;14.50;99.90;;;;;;5089921;28;20196;-78
2021/10/27 14:10:11;;;;;;;12.10;9.80;;;14.50;99.90;;;;;;5105539;28;20217;-77
2021/10/27 14:12:45;;;;;;;9.40;8.40;;;14.40;99.90;;;;;;5105106;28;20243;-77
2021/10/27 14:15:27;;;;;;;9.53;8.07;;;14.40;99.90;;;;;;5099242;28;20220;-78
2021/10/27 14:18:20;;;;;;;8.37;6.90;;;14.40;99.90;;;;;;5102141;28;20250;-77
2021/10/27 15:21:41;;;;;;;8.73;6.73;;;14.00;99.90;;;;;;5095928;28;20720;-79
2021/10/27 15:24:38;;;;;;;9.63;6.70;;;13.90;99.90;;;;;;5111935;27;20729;-79
2021/10/27 15:30:20;;;;;;;9.53;8.63;;;13.80;99.90;;;;;;5106982;28;20223;-76
2021/10/27 15:32:52;;;;;;;10.13;9.13;;;13.80;99.90;;;;;;5109011;28;20220;-76
2021/10/27 15:35:34;;;;;;;12.67;11.77;;;13.70;99.90;;;;;;5110846;28;21231;-77
2021/10/27 15:40:59;;;;;;;13.43;12.43;;;13.50;99.90;;;;;;5109022;28;20280;-77
2021/10/27 15:43:38;;;;;;;13.57;12.37;;;13.50;99.90;;;;;;5113591;28;20205;-78
2021/10/27 15:51:47;;;;;;;6.87;6.17;;;13.20;99.90;;;;;;5100522;28;20224;-78
2021/10/27 15:54:15;;;;;;;6.90;6.30;;;13.10;99.90;;;;;;5098148;28;20288;-78
2021/10/27 15:56:43;;;;;;;5.13;4.50;;;13.00;99.90;;;;;;5105094;28;20726;-81
2021/10/27 15:59:10;;;;;;;9.07;8.37;;;12.80;99.90;;;;;;5110196;28;20213;-78
2021/10/27 16:01:37;;;;;;;4.83;4.33;;;12.70;99.90;;;;;;5107919;28;20182;-78
2021/10/27 16:04:05;;;;;;;5.37;4.90;;;12.60;99.90;;;;;;5107934;28;20197;-78
2021/10/27 16:06:39;;;;;;;5.00;4.50;;;12.50;99.90;;;;;;5104664;28;20621;-78
2021/10/27 16:09:09;;;;;;;5.33;4.83;;;12.40;99.90;;;;;;5103409;27;20208;-77
2021/10/27 16:11:41;;;;;;;6.87;6.27;;;12.30;99.90;;;;;;5112388;27;20232;-77
2021/10/27 16:14:08;;;;;;;8.27;7.67;;;12.20;99.90;;;;;;5103024;28;20307;-77
2021/10/27 16:16:35;;;;;;;7.77;7.17;;;12.00;99.90;;;;;;5114089;28;20193;-77
2021/10/27 16:19:02;;;;;;;6.27;5.70;;;11.90;99.90;;;;;;5114609;28;20293;-77
2021/10/27 16:21:30;;;;;;;5.50;5.00;;;11.80;99.90;;;;;;5107475;28;20609;-77
2021/10/27 16:23:58;;;;;;;5.33;4.80;;;11.70;99.90;;;;;;5108319;28;20199;-76
2021/10/27 16:26:27;;;;;;;9.63;8.83;;;11.60;99.90;;;;;;5103143;28;20746;-76
2021/10/27 16:28:55;;;;;;;6.60;6.00;;;11.50;99.90;;;;;;5096395;28;20239;-77
2021/10/27 16:31:22;;;;;;;7.13;5.93;;;11.50;99.90;;;;;;5099221;28;20522;-77
2021/10/27 16:33:49;;;;;;;8.00;7.20;;;11.30;99.90;;;;;;5099072;27;20199;-78
2021/10/27 16:36:16;;;;;;;13.33;12.23;;;11.30;99.90;;;;;;5098599;28;20196;-78
2021/10/27 16:38:45;;;;;;;13.13;12.03;;;11.20;99.90;;;;;;5108278;27;20230;-77
2021/10/27 16:41:12;;;;;;;11.20;10.10;;;11.10;99.90;;;;;;5098384;28;20195;-79
2021/10/27 16:43:41;;;;;;;13.60;12.40;;;11.00;99.90;;;;;;5095810;28;20733;-77
2021/10/27 16:46:09;;;;;;;11.00;9.57;;;10.90;99.90;;;;;;5101631;28;20198;-77